createdAt,value
2024-03-02T00:01:16.705Z,82.10
2024-03-02T00:03:46.954Z,81.81
2024-03-02T00:06:35.653Z,82.06
2024-03-02T00:09:06.060Z,82.31
2024-03-02T00:11:49.675Z,82.04
2024-03-02T00:17:25.974Z,82.55
2024-03-02T00:20:04.034Z,82.11
2024-03-02T00:22:34.229Z,81.79
2024-03-02T00:25:08.845Z,81.71
2024-03-02T00:27:36.888Z,81.81
2024-03-02T00:30:34.899Z,82.07
2024-03-02T00:33:15.656Z,81.93
2024-03-02T00:35:52.926Z,81.57
2024-03-02T00:38:26.945Z,81.68
2024-03-02T00:41:01.746Z,81.84
2024-03-02T00:43:38.661Z,82.19
2024-03-02T00:46:09.033Z,81.78
2024-03-02T00:49:03.022Z,81.78
2024-03-02T00:52:03.684Z,81.94
2024-03-02T00:54:34.056Z,81.97
2024-03-02T00:57:09.992Z,82.06
2024-03-02T00:59:43.546Z,82.30
2024-03-02T01:02:17.504Z,82.32
2024-03-02T01:04:50.820Z,82.34
2024-03-02T01:07:34.075Z,82.40
2024-03-02T01:10:13.291Z,82.73
2024-03-02T01:13:03.753Z,82.53
2024-03-02T01:15:38.702Z,82.46
2024-03-02T01:18:16.373Z,82.83
2024-03-02T01:20:57.909Z,82.45
2024-03-02T01:23:49.177Z,82.08
2024-03-02T01:26:19.724Z,82.13
2024-03-02T01:28:55.002Z,81.74
2024-03-02T01:31:23.000Z,81.86
2024-03-02T01:33:57.965Z,81.82
2024-03-02T01:37:25.511Z,81.88
2024-03-02T01:39:37.199Z,81.57
2024-03-02T01:42:22.480Z,80.96
2024-03-02T01:44:56.048Z,81.15
2024-03-02T01:47:26.472Z,80.84
2024-03-02T01:49:58.809Z,80.98
2024-03-02T01:52:31.875Z,81.06
2024-03-02T01:55:21.393Z,80.99
2024-03-02T01:57:52.818Z,81.07
2024-03-02T02:00:27.587Z,80.93
2024-03-02T02:02:59.630Z,80.78
2024-03-02T02:05:32.243Z,81.06
2024-03-02T02:08:07.879Z,80.89
2024-03-02T02:10:36.968Z,81.34
2024-03-02T02:13:10.411Z,80.66
2024-03-02T02:15:43.518Z,81.05
2024-03-02T02:18:26.539Z,81.57
2024-03-02T02:21:08.771Z,82.03
2024-03-02T02:23:43.320Z,81.94
2024-03-02T02:26:11.310Z,82.12
2024-03-02T02:28:53.051Z,82.58
2024-03-02T02:31:20.886Z,82.56
2024-03-02T02:33:48.821Z,82.63
2024-03-02T02:36:17.074Z,82.64
2024-03-02T02:39:01.957Z,82.21
2024-03-02T02:41:48.537Z,82.06
2024-03-02T02:44:28.644Z,82.38
2024-03-02T02:47:13.903Z,82.79
2024-03-02T02:49:44.583Z,82.61
2024-03-02T02:52:14.814Z,82.78
2024-03-02T02:54:43.647Z,82.63
2024-03-02T02:57:14.195Z,82.45
2024-03-02T02:59:52.220Z,82.06
2024-03-02T03:02:34.207Z,82.48
2024-03-02T03:05:09.662Z,82.11
2024-03-02T03:07:52.288Z,81.33
2024-03-02T03:10:31.679Z,81.51
2024-03-02T03:13:02.224Z,81.31
2024-03-02T03:15:44.753Z,81.32
2024-03-02T03:18:27.580Z,81.22
2024-03-02T03:20:57.672Z,80.84
2024-03-02T03:23:57.427Z,80.92
2024-03-02T03:26:18.390Z,80.91
2024-03-02T03:28:46.477Z,80.88
2024-03-02T03:31:24.333Z,81.51
2024-03-02T03:33:53.857Z,81.27
2024-03-02T03:36:26.383Z,81.02
2024-03-02T03:38:58.789Z,80.78
2024-03-02T03:41:26.715Z,80.41
2024-03-02T03:44:01.859Z,81.32
2024-03-02T03:46:29.832Z,81.16
2024-03-02T03:49:02.449Z,81.08
2024-03-02T03:51:36.692Z,80.96
2024-03-02T03:54:18.746Z,81.81
2024-03-02T03:59:29.375Z,81.59
2024-03-02T04:01:59.824Z,80.97
2024-03-02T04:04:33.830Z,81.04
2024-03-02T04:07:04.259Z,81.03
2024-03-02T04:09:38.397Z,81.23
2024-03-02T04:12:09.705Z,81.27
2024-03-02T04:14:43.820Z,81.23
2024-03-02T04:17:14.980Z,81.15
2024-03-02T04:20:05.148Z,80.90
2024-03-02T04:22:42.959Z,81.40
2024-03-02T04:25:14.188Z,80.92
2024-03-02T04:27:42.509Z,81.37
2024-03-02T04:30:27.542Z,80.94
2024-03-02T04:33:06.210Z,82.01
2024-03-02T04:35:50.657Z,81.15
2024-03-02T04:38:52.987Z,82.91
2024-03-02T04:41:19.763Z,82.44
2024-03-02T04:44:12.127Z,82.69
2024-03-02T04:46:43.850Z,81.84
2024-03-02T04:49:24.349Z,81.66
2024-03-02T04:51:55.743Z,81.51
2024-03-02T04:54:29.751Z,81.95
2024-03-02T04:57:01.101Z,81.99
2024-03-02T04:59:31.488Z,81.48
2024-03-02T05:02:02.123Z,81.92
2024-03-02T05:04:37.109Z,82.29
2024-03-02T05:07:09.825Z,81.16
2024-03-02T05:09:48.647Z,80.95
2024-03-02T05:12:38.671Z,82.72
2024-03-02T05:15:23.237Z,82.42
2024-03-02T05:18:07.291Z,82.14
2024-03-02T05:20:51.422Z,82.75
2024-03-02T05:23:32.439Z,83.63
2024-03-02T05:26:05.536Z,83.05
2024-03-02T05:28:46.011Z,82.35
2024-03-02T05:31:19.594Z,83.32
2024-03-02T05:33:57.628Z,82.03
2024-03-02T05:36:25.933Z,81.25
2024-03-02T05:38:53.455Z,81.59
2024-03-02T05:41:21.052Z,81.49
2024-03-02T05:43:48.985Z,82.15
2024-03-02T05:46:17.117Z,82.85
2024-03-02T05:48:45.052Z,82.47
2024-03-02T05:51:14.172Z,82.29
2024-03-02T05:53:43.167Z,82.36
2024-03-02T05:56:18.375Z,82.40
2024-03-02T05:59:05.275Z,81.36
2024-03-02T06:01:35.642Z,81.55
2024-03-02T06:04:06.178Z,82.39
2024-03-02T06:06:37.071Z,82.31
2024-03-02T06:09:15.033Z,81.93
2024-03-02T06:11:47.502Z,82.21
2024-03-02T06:14:21.498Z,82.76
2024-03-02T06:16:54.592Z,82.04
2024-03-02T06:19:32.197Z,81.77
2024-03-02T06:22:11.477Z,82.70
2024-03-02T06:24:39.595Z,82.86
2024-03-02T06:27:17.468Z,82.32
2024-03-02T06:29:50.830Z,81.98
2024-03-02T06:32:38.981Z,82.47
2024-03-02T06:35:12.150Z,81.96
2024-03-02T06:37:54.606Z,82.44
2024-03-02T06:40:24.596Z,82.82
2024-03-02T06:43:05.325Z,82.63
2024-03-02T06:45:43.630Z,81.99
2024-03-02T06:48:26.064Z,82.41
2024-03-02T06:51:00.666Z,82.38
2024-03-02T06:53:38.917Z,81.87
2024-03-02T06:56:12.226Z,81.87
2024-03-02T06:58:46.341Z,82.38
2024-03-02T07:01:14.570Z,82.23
2024-03-02T07:03:45.355Z,81.98
2024-03-02T07:06:13.354Z,81.50
2024-03-02T07:08:46.236Z,81.55
2024-03-02T07:11:16.768Z,82.04
2024-03-02T07:13:45.179Z,81.98
2024-03-02T07:16:34.437Z,81.53
2024-03-02T07:19:03.293Z,81.42
2024-03-02T07:21:37.163Z,81.78
2024-03-02T07:24:05.309Z,81.59
2024-03-02T07:29:03.961Z,81.50
2024-03-02T07:31:31.482Z,81.69
2024-03-02T07:34:01.593Z,81.27
2024-03-02T07:36:36.439Z,81.88
2024-03-02T07:39:26.959Z,81.60
2024-03-02T07:42:04.256Z,80.81
2024-03-02T07:44:42.917Z,79.85
2024-03-02T07:47:15.003Z,77.89
2024-03-02T07:49:49.697Z,78.10
2024-03-02T07:52:25.321Z,74.71
2024-03-02T07:55:03.667Z,68.03
2024-03-02T07:57:31.552Z,67.77
2024-03-02T08:00:02.895Z,66.21
2024-03-02T08:02:40.060Z,70.76
2024-03-02T08:05:09.084Z,71.88
2024-03-02T08:07:37.178Z,72.21
2024-03-02T08:10:06.130Z,72.55
2024-03-02T08:12:33.856Z,72.34
2024-03-02T08:15:01.692Z,71.43
2024-03-02T08:17:38.169Z,71.23
2024-03-02T08:20:07.173Z,71.46
2024-03-02T08:22:37.744Z,71.96
2024-03-02T08:25:09.756Z,70.92
2024-03-02T08:27:42.270Z,71.72
2024-03-02T08:30:13.143Z,70.44
2024-03-02T08:32:43.074Z,70.83
2024-03-02T08:35:10.842Z,71.30
2024-03-02T08:37:41.182Z,71.33
2024-03-02T08:40:11.378Z,69.94
2024-03-02T08:42:39.868Z,70.14
2024-03-02T08:45:08.886Z,69.35
2024-03-02T08:47:38.745Z,68.16
2024-03-02T08:50:18.852Z,67.38
2024-03-02T08:52:55.481Z,67.73
2024-03-02T08:55:29.654Z,65.27
2024-03-02T08:58:01.846Z,65.54
2024-03-02T09:00:34.320Z,64.70
2024-03-02T09:03:02.499Z,63.66
2024-03-02T09:05:33.472Z,64.99
2024-03-02T09:08:01.240Z,64.15
2024-03-02T09:10:29.092Z,62.71
2024-03-02T09:12:58.899Z,59.44
2024-03-02T09:15:30.036Z,59.77
2024-03-02T09:17:58.536Z,59.96
2024-03-02T09:20:26.363Z,57.88
2024-03-02T09:22:56.372Z,56.51
2024-03-02T09:25:24.558Z,54.75
2024-03-02T09:27:52.421Z,55.59
2024-03-02T09:30:23.381Z,53.32
2024-03-02T09:32:51.386Z,53.43
2024-03-02T09:35:22.139Z,55.70
2024-03-02T09:37:50.504Z,54.15
2024-03-02T09:40:18.923Z,53.38
2024-03-02T09:42:52.477Z,53.04
2024-03-02T09:45:32.863Z,53.83
2024-03-02T09:48:06.817Z,51.97
2024-03-02T09:50:37.091Z,53.27
2024-03-02T09:53:08.856Z,52.33
2024-03-02T09:55:36.518Z,51.85
2024-03-02T09:58:04.311Z,52.10
2024-03-02T10:00:31.787Z,51.94
2024-03-02T10:02:59.597Z,49.45
2024-03-02T10:05:30.743Z,50.61
2024-03-02T10:08:02.063Z,49.16
2024-03-02T10:10:45.452Z,48.49
2024-03-02T10:13:14.278Z,48.03
2024-03-02T10:15:42.753Z,47.48
2024-03-02T10:18:14.301Z,48.40
2024-03-02T10:20:42.562Z,46.76
2024-03-02T10:23:14.811Z,46.29
2024-03-02T10:25:51.237Z,45.89
2024-03-02T10:28:22.771Z,44.12
2024-03-02T10:30:52.386Z,46.52
2024-03-02T10:33:20.206Z,45.38
2024-03-02T10:35:52.972Z,43.91
2024-03-02T10:38:20.484Z,45.05
2024-03-02T10:40:50.993Z,44.77
2024-03-02T10:43:20.076Z,44.88
2024-03-02T10:45:51.790Z,45.32
2024-03-02T10:48:19.437Z,46.17
2024-03-02T10:50:47.153Z,45.05
2024-03-02T10:53:14.534Z,44.17
2024-03-02T10:55:42.457Z,44.57
2024-03-02T10:58:27.201Z,44.06
2024-03-02T11:01:03.220Z,43.86
2024-03-02T11:03:50.433Z,43.71
2024-03-02T11:06:27.698Z,42.79
2024-03-02T11:09:29.439Z,42.60
2024-03-02T11:12:42.736Z,42.18
2024-03-02T11:15:20.783Z,44.05
2024-03-02T11:18:26.021Z,43.04
2024-03-02T11:28:22.894Z,40.98
2024-03-02T11:30:55.799Z,40.29
2024-03-02T11:33:28.450Z,41.88
2024-03-02T11:35:58.079Z,40.08
2024-03-02T11:38:30.410Z,41.27
2024-03-02T11:41:03.107Z,39.92
2024-03-02T14:05:55.791Z,43.70
2024-03-02T14:08:39.248Z,44.98
2024-03-02T14:11:06.642Z,44.38
2024-03-02T14:13:34.065Z,44.34
2024-03-02T14:16:01.513Z,47.92
2024-03-02T14:18:28.963Z,45.66
2024-03-02T14:20:57.329Z,45.97
2024-03-02T14:23:24.644Z,46.25
2024-03-02T14:25:51.971Z,44.98
2024-03-02T14:28:43.083Z,46.62
2024-03-02T14:31:08.037Z,44.84
2024-03-02T14:33:35.571Z,44.72
2024-03-02T14:36:03.086Z,44.20
2024-03-02T14:38:30.441Z,43.64
2024-03-02T14:40:57.847Z,45.84
2024-03-02T14:43:25.107Z,44.32
2024-03-02T14:45:52.472Z,44.93
2024-03-02T14:48:19.895Z,44.55
2024-03-02T14:50:47.238Z,46.47
2024-03-02T14:53:14.539Z,45.46
2024-03-02T14:55:41.807Z,46.37
2024-03-02T14:58:09.439Z,44.71
2024-03-02T15:00:36.809Z,44.38
2024-03-02T15:03:06.786Z,44.59
2024-03-02T15:05:34.267Z,45.38
2024-03-02T15:08:03.868Z,45.97
2024-03-02T15:10:31.699Z,47.78
2024-03-02T15:12:59.632Z,47.50
2024-03-02T15:15:27.717Z,45.96
2024-03-02T15:17:55.058Z,46.43
2024-03-02T15:20:22.810Z,47.48
2024-03-02T15:22:50.208Z,47.05
2024-03-02T15:25:17.640Z,47.18
2024-03-02T15:27:45.266Z,47.30
2024-03-02T15:30:12.987Z,48.36
2024-03-02T15:32:40.374Z,47.87
2024-03-02T15:35:08.521Z,48.47
2024-03-02T15:37:35.845Z,48.96
2024-03-02T15:40:07.599Z,47.70
2024-03-02T15:42:35.776Z,49.00
2024-03-02T17:43:52.679Z,62.83
2024-03-02T17:47:56.789Z,61.85
2024-03-02T18:00:36.319Z,63.74
2024-03-02T18:11:13.178Z,64.42
2024-03-02T18:14:28.129Z,64.88
2024-03-02T18:21:00.856Z,65.50
2024-03-02T18:32:50.387Z,66.66
2024-03-02T18:39:10.355Z,66.36
2024-03-02T18:41:46.411Z,66.51
2024-03-02T18:45:11.599Z,67.14
2024-03-02T18:54:15.128Z,66.82
2024-03-02T18:57:28.110Z,67.98
2024-03-02T19:02:04.345Z,68.49
2024-03-02T19:17:11.854Z,69.01
2024-03-02T19:18:06.615Z,69.53
2024-03-02T19:21:03.367Z,69.93
2024-03-02T19:24:05.016Z,69.45
2024-03-02T19:33:34.216Z,70.33
2024-03-02T19:36:18.637Z,70.70
2024-03-02T19:39:28.380Z,70.42
2024-03-02T19:42:06.693Z,70.93
2024-03-02T19:44:44.555Z,71.96
2024-03-02T19:47:38.708Z,72.25
2024-03-02T19:50:52.349Z,72.85
2024-03-02T19:53:21.299Z,72.27
2024-03-02T19:59:15.503Z,73.08
2024-03-02T20:02:14.438Z,72.89
2024-03-02T20:02:16.772Z,73.07
2024-03-02T20:04:53.793Z,73.63
2024-03-02T20:07:25.943Z,73.67
2024-03-02T20:10:06.186Z,74.05
2024-03-02T20:12:43.574Z,73.71
2024-03-02T20:15:35.688Z,73.89
2024-03-02T20:18:15.124Z,74.01
2024-03-02T20:20:58.877Z,73.87
2024-03-02T20:23:54.052Z,73.64
2024-03-02T20:29:15.759Z,74.00
2024-03-02T20:32:01.892Z,73.88
2024-03-02T20:34:42.568Z,74.29
2024-03-02T20:37:25.552Z,73.28
2024-03-02T20:40:00.592Z,74.35
2024-03-02T20:42:39.852Z,73.76
2024-03-02T20:45:10.536Z,72.77
2024-03-02T20:47:42.942Z,72.87
2024-03-02T20:50:17.014Z,73.90
2024-03-02T20:52:53.898Z,73.13
2024-03-02T20:55:31.838Z,74.20
2024-03-02T20:58:07.948Z,73.97
2024-03-02T21:05:39.838Z,74.81
2024-03-02T21:12:19.030Z,75.29
2024-03-02T21:15:01.208Z,75.41
2024-03-02T21:17:56.287Z,75.44
2024-03-02T21:20:54.800Z,75.35
2024-03-02T21:31:35.779Z,74.76
2024-03-02T21:50:25.882Z,77.55
2024-03-02T22:09:38.027Z,78.07
2024-03-02T22:13:05.440Z,77.74
2024-03-02T22:15:37.509Z,77.69
2024-03-02T22:18:33.521Z,77.10
2024-03-02T22:21:14.450Z,77.20
2024-03-02T22:24:09.881Z,75.53
2024-03-02T22:27:03.959Z,77.14
2024-03-02T22:32:55.570Z,75.11
2024-03-02T22:36:28.916Z,78.72
2024-03-02T22:40:15.717Z,75.08
2024-03-02T22:43:04.075Z,76.56
2024-03-02T22:45:31.660Z,77.37
2024-03-02T22:48:00.177Z,77.24
2024-03-02T22:50:28.661Z,77.02
2024-03-02T22:52:55.955Z,76.32
2024-03-02T22:56:16.429Z,76.93
2024-03-02T23:01:25.845Z,76.08
2024-03-02T23:02:21.560Z,75.80
2024-03-02T23:05:22.242Z,76.55
2024-03-02T23:09:19.271Z,76.12
2024-03-02T23:11:34.585Z,75.23
2024-03-02T23:14:39.881Z,74.07
2024-03-02T23:17:25.917Z,74.74
2024-03-02T23:20:14.430Z,73.78
2024-03-02T23:23:10.894Z,74.57
2024-03-02T23:29:46.345Z,77.01
2024-03-02T23:32:42.922Z,77.74
2024-03-02T23:35:32.523Z,78.19
2024-03-02T23:38:51.234Z,78.49
2024-03-02T23:41:37.509Z,78.56
2024-03-02T23:47:17.544Z,76.95
2024-03-02T23:53:08.058Z,77.62
2024-03-02T23:55:51.839Z,76.76
2024-03-02T23:58:22.414Z,76.25
